Time;durP1;ratioP1;P1;durP2;ratioP2;P2;SDS_P1;SDS_P2;PMS_P1;PMS_P2;Temp;Humidity;BMP_temperature;BMP_pressure;BME280_temperature;BME280_humidity;BME280_pressure;Samples;Min_cycle;Max_cycle;Signal;HPM_P1;HPM_P2
2023/10/26 00:01:19;;;;;;;9.13;5.85;;;;;;;10.90;58.24;99091.25;5041184;28;20056;-75
2023/10/26 00:03:47;;;;;;;7.88;6.20;;;;;;;10.91;58.20;99099.31;5044872;28;20073;-75
2023/10/26 00:06:15;;;;;;;9.20;6.10;;;;;;;10.89;58.20;99100.53;5026560;28;20052;-74
2023/10/26 00:08:43;;;;;;;8.32;5.95;;;;;;;10.90;58.75;99105.81;5038047;28;20056;-75
2023/10/26 00:11:10;;;;;;;8.52;6.05;;;;;;;10.89;58.53;99106.88;5021020;28;20095;-74
2023/10/26 00:13:38;;;;;;;8.43;6.05;;;;;;;10.89;58.13;99109.59;5044261;28;20399;-75
2023/10/26 00:16:08;;;;;;;9.65;6.80;;;;;;;10.92;58.45;99113.84;5045259;28;20075;-73
2023/10/26 00:18:36;;;;;;;9.48;6.63;;;;;;;10.90;58.00;99119.47;5043048;28;20053;-75
2023/10/26 00:21:04;;;;;;;8.48;6.47;;;;;;;10.89;58.40;99122.44;5023188;28;20076;-74
2023/10/26 00:23:32;;;;;;;9.77;6.97;;;;;;;10.88;58.23;99113.34;5021639;28;20060;-75
2023/10/26 00:26:00;;;;;;;9.75;6.45;;;;;;;10.89;58.50;99119.69;5020734;28;20126;-75
2023/10/26 00:28:27;;;;;;;7.82;5.75;;;;;;;10.88;58.24;99121.56;5037081;28;20080;-74
2023/10/26 00:30:55;;;;;;;9.38;6.10;;;;;;;10.87;58.11;99127.22;5042196;28;20392;-74
2023/10/26 00:33:25;;;;;;;9.95;6.50;;;;;;;10.88;58.13;99129.78;5023940;28;20468;-74
2023/10/26 00:35:53;;;;;;;8.05;5.75;;;;;;;10.86;58.14;99134.56;5038217;28;20045;-75
2023/10/26 00:38:21;;;;;;;8.20;6.15;;;;;;;10.86;58.43;99133.72;5039611;28;20060;-75
2023/10/26 00:40:49;;;;;;;8.32;6.22;;;;;;;10.86;57.95;99134.56;5038480;28;20045;-74
2023/10/26 00:43:21;;;;;;;8.65;6.05;;;;;;;10.87;58.29;99143.63;5022799;28;20048;-74
2023/10/26 00:45:51;;;;;;;8.77;6.07;;;;;;;10.84;58.24;99147.56;5024825;28;20560;-74
2023/10/26 00:48:20;;;;;;;8.65;5.93;;;;;;;10.85;58.38;99143.81;5042653;28;20041;-74
2023/10/26 00:50:50;;;;;;;8.38;5.85;;;;;;;10.85;58.38;99151.16;5037762;28;20689;-74
2023/10/26 00:53:20;;;;;;;9.10;6.45;;;;;;;10.85;58.08;99156.63;5039254;28;20057;-74
2023/10/26 00:55:52;;;;;;;8.15;6.18;;;;;;;10.85;57.77;99168.44;5038024;28;20049;-74
2023/10/26 00:58:22;;;;;;;8.13;6.00;;;;;;;10.83;58.35;99165.03;5038668;28;20040;-74
2023/10/26 01:00:51;;;;;;;8.45;5.85;;;;;;;10.81;57.83;99169.00;5023444;28;20045;-74
2023/10/26 01:03:19;;;;;;;9.88;6.47;;;;;;;10.81;58.15;99166.25;5035664;28;20068;-74
2023/10/26 01:05:48;;;;;;;9.63;6.25;;;;;;;10.81;57.80;99167.06;5037987;28;20397;-74
2023/10/26 01:08:17;;;;;;;8.70;6.35;;;;;;;10.82;58.27;99167.94;5016183;28;20385;-74
2023/10/26 01:10:46;;;;;;;8.63;6.47;;;;;;;10.80;58.01;99170.00;5017357;28;20059;-74
2023/10/26 01:13:14;;;;;;;9.30;6.65;;;;;;;10.80;57.83;99178.22;5017301;28;20050;-74
2023/10/26 01:15:42;;;;;;;8.93;6.70;;;;;;;10.79;57.86;99180.09;5034075;28;20045;-75
2023/10/26 01:18:10;;;;;;;9.82;6.45;;;;;;;10.80;58.17;99180.97;5018769;28;20098;-74
2023/10/26 01:20:42;;;;;;;8.30;6.47;;;;;;;10.81;58.32;99183.50;5037621;28;20087;-74
2023/10/26 01:23:11;;;;;;;9.50;6.30;;;;;;;10.81;57.80;99182.66;5017996;28;20048;-74
2023/10/26 01:25:39;;;;;;;10.07;7.00;;;;;;;10.79;57.94;99180.09;5037549;28;20045;-74
2023/10/26 01:28:08;;;;;;;8.70;6.53;;;;;;;10.80;58.16;99175.50;5019167;28;20049;-74
2023/10/26 01:30:36;;;;;;;9.88;6.80;;;;;;;10.79;57.81;99180.09;5017798;28;20061;-74
2023/10/26 01:33:03;;;;;;;9.10;6.63;;;;;;;10.79;57.63;99182.84;5036711;28;20118;-74
2023/10/26 01:35:38;;;;;;;8.73;6.43;;;;;;;10.82;58.11;99184.34;5040238;28;20047;-74
2023/10/26 01:38:06;;;;;;;8.18;5.85;;;;;;;10.79;57.75;99187.47;5017873;28;20539;-74
2023/10/26 01:40:35;;;;;;;9.63;6.57;;;;;;;10.79;58.07;99182.84;5035598;28;20133;-74
2023/10/26 01:43:03;;;;;;;9.70;6.97;;;;;;;10.78;57.81;99186.59;5021558;28;20103;-75
2023/10/26 01:45:31;;;;;;;9.15;6.55;;;;;;;10.79;57.71;99192.94;5033711;28;20049;-74
2023/10/26 01:48:02;;;;;;;8.23;6.20;;;;;;;10.78;57.58;99194.81;5036011;28;20110;-74
2023/10/26 01:50:31;;;;;;;10.05;6.53;;;;;;;10.78;57.94;99191.22;5015363;28;20038;-74
2023/10/26 01:52:59;;;;;;;8.85;6.03;;;;;;;10.77;57.38;99201.31;5019535;28;20048;-74
2023/10/26 01:55:27;;;;;;;8.00;5.78;;;;;;;10.77;57.43;99195.84;5037311;28;20044;-74
2023/10/26 01:57:57;;;;;;;8.48;6.15;;;;;;;10.78;57.39;99200.28;5018514;28;20045;-74
2023/10/26 02:00:25;;;;;;;9.35;6.32;;;;;;;10.76;57.70;99199.59;5016854;28;20132;-74
2023/10/26 02:02:55;;;;;;;9.05;6.50;;;;;;;10.75;57.86;99189.69;5018728;28;20045;-74
2023/10/26 02:05:24;;;;;;;12.02;6.07;;;;;;;10.75;57.37;99197.88;5021787;28;20064;-73
2023/10/26 02:07:53;;;;;;;7.63;5.47;;;;;;;10.74;57.30;99209.00;5015444;28;20135;-74
2023/10/26 02:10:23;;;;;;;7.30;5.20;;;;;;;10.75;57.25;99205.25;5033100;28;20076;-74
2023/10/26 02:12:51;;;;;;;8.20;5.68;;;;;;;10.73;57.39;99208.16;5018028;28;21209;-75
2023/10/26 02:15:21;;;;;;;7.93;5.18;;;;;;;10.75;57.75;99213.44;5035014;28;20046;-74
2023/10/26 02:17:49;;;;;;;8.13;5.22;;;;;;;10.73;57.28;99212.78;5038109;28;20050;-74
2023/10/26 02:20:17;;;;;;;7.68;5.55;;;;;;;10.74;57.73;99214.47;5014578;28;20118;-74
2023/10/26 02:22:46;;;;;;;6.88;4.72;;;;;;;10.72;57.18;99209.19;5032647;28;20037;-74
2023/10/26 02:25:15;;;;;;;6.57;4.55;;;;;;;10.72;57.26;99209.19;5034412;28;20073;-74
2023/10/26 02:27:43;;;;;;;7.15;4.57;;;;;;;10.72;57.19;99208.34;5015396;28;20452;-74
2023/10/26 02:30:12;;;;;;;5.88;4.43;;;;;;;10.73;57.19;99212.78;5016590;28;20049;-74
2023/10/26 02:32:41;;;;;;;6.22;4.43;;;;;;;10.72;57.68;99211.09;5035436;28;20053;-74
2023/10/26 02:35:09;;;;;;;6.25;4.22;;;;;;;10.71;57.15;99212.09;5016358;28;20068;-74
2023/10/26 02:37:39;;;;;;;6.43;4.72;;;;;;;10.70;57.54;99215.88;5034083;28;20084;-74
2023/10/26 02:40:09;;;;;;;6.68;3.88;;;;;;;10.70;57.08;99214.00;5032986;28;20533;-74
2023/10/26 02:42:38;;;;;;;6.22;3.97;;;;;;;10.70;57.46;99210.41;5034037;28;20053;-74
2023/10/26 02:45:08;;;;;;;5.72;3.85;;;;;;;10.70;57.05;99227.66;5031150;28;20045;-74
2023/10/26 02:47:37;;;;;;;5.25;3.50;;;;;;;10.68;57.45;99224.25;5039324;28;20057;-74
2023/10/26 02:50:08;;;;;;;5.55;3.88;;;;;;;10.70;56.76;99226.81;5028628;28;20091;-74
2023/10/26 02:52:37;;;;;;;4.85;3.35;;;;;;;10.69;56.99;99230.56;5031863;28;20044;-74
2023/10/26 02:55:06;;;;;;;5.40;3.90;;;;;;;10.69;56.96;99228.69;5014441;28;20053;-74
2023/10/26 02:57:34;;;;;;;4.88;3.42;;;;;;;10.69;56.85;99233.31;5014961;28;20088;-74
2023/10/26 03:00:02;;;;;;;4.82;3.33;;;;;;;10.68;57.14;99240.66;5015225;28;20640;-74
2023/10/26 03:02:30;;;;;;;4.85;3.20;;;;;;;10.68;56.73;99234.34;5013936;28;20521;-74
2023/10/26 03:04:58;;;;;;;4.15;2.85;;;;;;;10.67;56.54;99238.09;5034142;28;20041;-74
2023/10/26 03:07:27;;;;;;;5.18;3.03;;;;;;;10.68;56.64;99226.13;5014069;28;20114;-74
2023/10/26 03:09:55;;;;;;;5.78;3.00;;;;;;;10.66;56.95;99226.28;5014470;28;20050;-75
2023/10/26 03:12:23;;;;;;;4.30;3.00;;;;;;;10.65;56.69;99227.31;5033048;28;20054;-74
2023/10/26 03:14:52;;;;;;;4.18;2.72;;;;;;;10.65;57.09;99235.53;5035694;28;20523;-74
2023/10/26 03:17:20;;;;;;;4.97;3.20;;;;;;;10.65;56.89;99237.44;5018582;28;20054;-74
2023/10/26 03:19:48;;;;;;;4.85;3.00;;;;;;;10.65;56.78;99241.00;5016847;28;20067;-74
2023/10/26 03:22:16;;;;;;;5.28;2.90;;;;;;;10.65;57.15;99234.72;5036261;28;20540;-74
2023/10/26 03:24:46;;;;;;;4.22;2.95;;;;;;;10.67;57.21;99227.16;5035373;28;20077;-74
2023/10/26 03:27:14;;;;;;;4.40;2.63;;;;;;;10.65;56.65;99223.75;5016801;28;20057;-74
2023/10/26 03:29:42;;;;;;;6.20;3.05;;;;;;;10.65;56.80;99221.03;5013945;28;20136;-75
2023/10/26 03:32:11;;;;;;;4.32;2.97;;;;;;;10.66;56.81;99234.50;5034190;28;20048;-75
2023/10/26 03:34:39;;;;;;;4.25;2.63;;;;;;;10.66;56.58;99230.91;5017050;28;20136;-74
2023/10/26 03:37:08;;;;;;;4.70;2.92;;;;;;;10.65;56.60;99227.31;5036210;28;20049;-74
2023/10/26 03:39:36;;;;;;;4.22;2.72;;;;;;;10.66;56.89;99239.13;5017788;28;20053;-74
2023/10/26 03:42:06;;;;;;;4.40;3.00;;;;;;;10.66;56.42;99239.97;5035615;28;20049;-74
2023/10/26 03:44:34;;;;;;;5.63;3.08;;;;;;;10.64;56.55;99236.59;5034115;28;20474;-74
2023/10/26 03:47:02;;;;;;;5.20;3.58;;;;;;;10.64;56.81;99244.78;5017953;28;20049;-74
2023/10/26 03:49:30;;;;;;;5.70;3.60;;;;;;;10.64;56.44;99244.78;5034778;28;20191;-74
2023/10/26 03:51:58;;;;;;;5.10;3.15;;;;;;;10.65;56.92;99248.38;5033425;28;20049;-74
2023/10/26 03:54:27;;;;;;;6.03;3.63;;;;;;;10.63;56.66;99240.34;5016218;28;20060;-74
2023/10/26 03:56:55;;;;;;;5.82;3.60;;;;;;;10.62;56.33;99232.31;5033452;28;20048;-73
2023/10/26 03:59:24;;;;;;;5.43;3.53;;;;;;;10.64;56.70;99235.72;5014320;28;20049;-75
2023/10/26 04:01:52;;;;;;;5.38;3.67;;;;;;;10.60;56.62;99238.81;5033381;28;20045;-74
2023/10/26 04:04:20;;;;;;;5.35;3.50;;;;;;;10.60;56.61;99233.34;5032976;28;20131;-74
2023/10/26 04:06:48;;;;;;;5.68;4.28;;;;;;;10.59;56.59;99237.09;5034557;28;20129;-74
2023/10/26 04:09:16;;;;;;;6.57;4.50;;;;;;;10.59;56.23;99245.28;5031725;28;20103;-74
2023/10/26 04:11:45;;;;;;;7.30;4.45;;;;;;;10.58;56.63;99237.25;5031594;28;20053;-74
2023/10/26 04:14:13;;;;;;;7.32;4.47;;;;;;;10.58;56.54;99243.59;5032158;28;20045;-74
2023/10/26 04:16:42;;;;;;;6.25;4.50;;;;;;;10.58;56.58;99240.00;5016158;28;21277;-74
2023/10/26 04:19:10;;;;;;;7.10;4.82;;;;;;;10.55;56.46;99243.94;5014097;28;20144;-75
2023/10/26 04:21:38;;;;;;;6.13;4.40;;;;;;;10.53;56.25;99246.00;5032513;28;20480;-74
2023/10/26 04:24:06;;;;;;;7.00;5.10;;;;;;;10.54;56.22;99244.13;5014556;28;20100;-74
2023/10/26 04:26:34;;;;;;;7.57;4.90;;;;;;;10.53;56.28;99239.63;5035120;28;20524;-74
2023/10/26 04:29:02;;;;;;;9.00;5.47;;;;;;;10.51;56.34;99239.81;5033176;28;20072;-74
2023/10/26 04:31:32;;;;;;;8.48;5.28;;;;;;;10.52;56.38;99235.19;5040539;28;20150;-74
2023/10/26 04:34:02;;;;;;;9.07;5.70;;;;;;;10.53;56.78;99236.91;5032955;28;20041;-74
2023/10/26 04:36:30;;;;;;;8.10;5.30;;;;;;;10.51;56.72;99241.69;5015044;28;20428;-74
2023/10/26 04:38:58;;;;;;;9.60;5.60;;;;;;;10.51;56.58;99225.28;5032994;28;20519;-74
2023/10/26 04:41:26;;;;;;;7.82;5.70;;;;;;;10.51;56.28;99228.00;5032420;28;21163;-73
2023/10/26 04:43:54;;;;;;;9.70;5.88;;;;;;;10.50;56.42;99232.63;5014426;28;20053;-74
2023/10/26 04:46:22;;;;;;;9.00;5.55;;;;;;;10.50;56.55;99229.03;5032050;28;20053;-74
2023/10/26 04:48:50;;;;;;;8.32;5.57;;;;;;;10.50;56.38;99226.28;5012986;28;20061;-74
2023/10/26 04:51:19;;;;;;;8.48;5.65;;;;;;;10.50;56.62;99223.56;5015791;28;20063;-74
2023/10/26 04:53:47;;;;;;;8.48;5.72;;;;;;;10.48;56.43;99226.47;5033023;28;21278;-75
2023/10/26 04:56:17;;;;;;;9.32;6.07;;;;;;;10.48;56.08;99220.16;5036416;28;20053;-74
2023/10/26 04:58:47;;;;;;;8.75;5.88;;;;;;;10.48;55.85;99220.16;5028385;28;20131;-75
2023/10/26 05:01:15;;;;;;;9.13;5.55;;;;;;;10.47;56.33;99218.47;5026038;28;20068;-75
2023/10/26 05:03:43;;;;;;;7.50;5.45;;;;;;;10.47;56.11;99218.47;5022552;28;20038;-74
2023/10/26 05:06:11;;;;;;;8.88;5.63;;;;;;;10.46;56.40;99217.59;5022508;28;20053;-75
2023/10/26 05:08:40;;;;;;;8.65;5.80;;;;;;;10.46;56.35;99211.28;5005416;28;20054;-75
2023/10/26 05:11:08;;;;;;;9.13;6.18;;;;;;;10.45;56.48;99220.50;5003417;28;20075;-74
2023/10/26 05:13:36;;;;;;;9.02;5.95;;;;;;;10.44;55.95;99219.66;5022171;28;20190;-76
2023/10/26 05:16:05;;;;;;;8.40;5.68;;;;;;;10.43;56.17;99220.66;5019976;28;20088;-75
2023/10/26 05:18:33;;;;;;;8.77;5.70;;;;;;;10.44;56.04;99221.53;5002754;28;20053;-75
2023/10/26 05:21:01;;;;;;;10.05;6.32;;;;;;;10.42;56.00;99224.44;5002335;28;20061;-74
2023/10/26 05:23:29;;;;;;;9.35;6.25;;;;;;;10.43;55.99;99219.81;5021305;28;20065;-74
2023/10/26 05:25:58;;;;;;;9.93;6.38;;;;;;;10.43;56.11;99220.66;5019834;28;20128;-74
2023/10/26 05:28:26;;;;;;;9.13;6.65;;;;;;;10.40;56.01;99222.91;5023851;28;20144;-74
2023/10/26 05:30:54;;;;;;;8.65;6.15;;;;;;;10.41;55.95;99219.13;5026299;28;20121;-74
2023/10/26 05:33:22;;;;;;;8.18;5.57;;;;;;;10.41;55.97;99213.66;5020309;28;20511;-75
2023/10/26 05:35:50;;;;;;;9.63;6.20;;;;;;;10.40;56.13;99210.06;5005754;28;20044;-74
2023/10/26 05:38:19;;;;;;;9.30;6.20;;;;;;;10.39;56.18;99213.84;5005588;28;20045;-74
2023/10/26 05:40:55;;;;;;;8.80;6.32;;;;;;;10.42;56.08;99220.84;5005052;28;20045;-74
2023/10/26 05:43:25;;;;;;;8.98;6.05;;;;;;;10.40;56.30;99218.28;5022902;28;20049;-74
2023/10/26 05:45:53;;;;;;;10.63;6.07;;;;;;;10.39;56.11;99216.59;5027464;28;20077;-74
2023/10/26 05:48:23;;;;;;;10.30;5.90;;;;;;;10.39;56.47;99210.28;5018888;28;20046;-74
2023/10/26 05:50:51;;;;;;;8.55;6.00;;;;;;;10.39;56.26;99205.66;5021360;28;20493;-76
2023/10/26 05:53:19;;;;;;;8.27;5.90;;;;;;;10.39;56.08;99197.44;5001515;28;20089;-75
2023/10/26 05:55:56;;;;;;;8.95;6.03;;;;;;;10.42;55.89;99204.44;5001772;28;20524;-75
2023/10/26 05:58:25;;;;;;;9.32;5.78;;;;;;;10.40;56.52;99206.50;5015243;28;20053;-75
2023/10/26 06:00:53;;;;;;;9.20;6.45;;;;;;;10.39;56.54;99210.28;5019655;28;20077;-75
2023/10/26 06:03:22;;;;;;;9.27;6.70;;;;;;;10.39;56.36;99213.00;5020197;28;20547;-76
2023/10/26 06:05:50;;;;;;;9.73;6.40;;;;;;;10.38;56.48;99212.16;5021543;28;20512;-76
2023/10/26 06:08:18;;;;;;;9.88;6.15;;;;;;;10.39;56.39;99221.22;5023432;28;20057;-75
2023/10/26 06:10:46;;;;;;;8.50;5.82;;;;;;;10.39;56.30;99224.81;5002204;28;20519;-75
2023/10/26 06:13:14;;;;;;;9.52;6.50;;;;;;;10.39;56.53;99219.34;5006111;28;20061;-75
2023/10/26 06:15:43;;;;;;;9.10;6.20;;;;;;;10.41;56.52;99225.47;5025756;28;20366;-76
2023/10/26 06:18:12;;;;;;;8.43;5.85;;;;;;;10.39;56.12;99219.34;5024062;28;20706;-75
2023/10/26 06:20:40;;;;;;;9.23;5.75;;;;;;;10.39;56.03;99215.75;5025579;28;21211;-75
2023/10/26 06:23:09;;;;;;;10.18;6.03;;;;;;;10.39;56.27;99219.34;5032175;28;20064;-75
2023/10/26 06:25:39;;;;;;;10.10;6.68;;;;;;;10.40;55.88;99214.72;5007293;28;20053;-75
2023/10/26 06:28:07;;;;;;;8.50;6.35;;;;;;;10.39;55.99;99216.59;5025323;28;20053;-75
2023/10/26 06:30:35;;;;;;;9.23;6.15;;;;;;;10.40;56.25;99223.75;5006806;28;20049;-75
2023/10/26 06:33:04;;;;;;;9.95;6.40;;;;;;;10.41;56.37;99211.78;5008253;28;20476;-75
2023/10/26 06:35:32;;;;;;;10.77;6.70;;;;;;;10.40;56.47;99206.50;5026972;28;20053;-73
2023/10/26 06:38:00;;;;;;;9.13;6.32;;;;;;;10.40;56.50;99212.81;5023632;28;20132;-74
2023/10/26 06:40:28;;;;;;;9.50;5.93;;;;;;;10.41;56.51;99213.66;5005737;28;20061;-74
2023/10/26 06:42:56;;;;;;;8.07;5.78;;;;;;;10.41;56.36;99210.94;5006176;28;20045;-73
2023/10/26 06:45:25;;;;;;;10.13;6.10;;;;;;;10.41;56.07;99219.97;5025652;28;20049;-74
2023/10/26 06:47:53;;;;;;;8.38;5.78;;;;;;;10.41;56.27;99222.72;5011233;28;20046;-74
2023/10/26 06:50:23;;;;;;;8.10;5.22;;;;;;;10.43;56.37;99228.03;5028789;28;20072;-74
2023/10/26 06:52:51;;;;;;;9.63;5.78;;;;;;;10.42;56.28;99229.03;5028553;28;20420;-74
2023/10/26 06:55:19;;;;;;;8.27;5.32;;;;;;;10.41;56.08;99225.47;5012060;28;20041;-74
2023/10/26 06:57:57;;;;;;;8.20;5.22;;;;;;;10.41;56.31;99235.53;5015457;28;20061;-74
2023/10/26 07:00:26;;;;;;;8.23;5.30;;;;;;;10.42;56.51;99229.03;5027401;28;20044;-74
2023/10/26 07:02:54;;;;;;;8.82;4.93;;;;;;;10.42;56.08;99227.16;5036290;28;20049;-74
2023/10/26 07:05:24;;;;;;;9.43;5.45;;;;;;;10.45;56.24;99224.09;5009972;28;20076;-74
2023/10/26 07:07:51;;;;;;;7.53;4.93;;;;;;;10.44;56.65;99224.25;5028304;28;20037;-74
2023/10/26 07:10:20;;;;;;;7.97;5.15;;;;;;;10.45;56.33;99225.97;5027078;28;20163;-73
2023/10/26 07:12:48;;;;;;;8.63;5.72;;;;;;;10.44;56.55;99227.84;5014872;28;20065;-74
2023/10/26 07:15:16;;;;;;;8.48;5.22;;;;;;;10.45;56.75;99224.09;5030478;28;20091;-74
2023/10/26 07:17:44;;;;;;;7.53;5.20;;;;;;;10.47;56.19;99221.19;5026951;28;20587;-74
2023/10/26 07:20:13;;;;;;;7.63;5.22;;;;;;;10.48;56.65;99222.91;5024132;28;20060;-74
2023/10/26 07:22:43;;;;;;;9.50;5.18;;;;;;;10.49;56.75;99219.13;5011380;28;21066;-74
2023/10/26 07:25:11;;;;;;;7.72;5.45;;;;;;;10.49;56.37;99210.91;5031889;28;20136;-74
2023/10/26 07:27:39;;;;;;;7.78;5.45;;;;;;;10.50;56.28;99220.81;5011379;28;20061;-74
2023/10/26 07:30:08;;;;;;;8.20;5.05;;;;;;;10.51;56.53;99212.44;5025349;28;20432;-74
2023/10/26 07:32:36;;;;;;;8.40;5.80;;;;;;;10.53;56.49;99215.03;5027827;28;20083;-73
2023/10/26 07:35:05;;;;;;;9.25;6.10;;;;;;;10.55;56.46;99204.81;5008160;28;20045;-74
2023/10/26 07:37:33;;;;;;;8.48;5.45;;;;;;;10.55;56.39;99202.91;5026165;28;20092;-74
2023/10/26 07:40:03;;;;;;;9.40;5.72;;;;;;;10.59;56.76;99196.06;5007175;28;20140;-74
2023/10/26 07:42:51;;;;;;;7.80;5.00;;;;;;;10.57;56.92;99202.72;5026581;28;20069;-74
2023/10/26 07:45:19;;;;;;;8.88;5.47;;;;;;;10.59;56.61;99207.00;5007593;28;20111;-74
2023/10/26 07:47:47;;;;;;;8.68;5.60;;;;;;;10.62;56.85;99208.53;5027199;28;20045;-73
2023/10/26 07:50:19;;;;;;;8.18;5.70;;;;;;;10.64;56.22;99205.63;5007383;28;20052;-74
2023/10/26 07:52:48;;;;;;;8.35;5.72;;;;;;;10.61;56.58;99195.88;5008367;28;20049;-74
2023/10/26 07:55:18;;;;;;;8.07;5.70;;;;;;;10.65;56.23;99199.97;5025016;28;20459;-76
2023/10/26 07:57:46;;;;;;;8.20;5.40;;;;;;;10.65;56.65;99197.22;5006023;28;20053;-75
2023/10/26 08:00:15;;;;;;;8.13;5.32;;;;;;;10.67;56.58;99208.00;5007367;28;20123;-75
2023/10/26 08:02:43;;;;;;;8.63;5.82;;;;;;;10.67;56.67;99205.25;5027373;28;20500;-74
2023/10/26 08:05:12;;;;;;;8.68;5.88;;;;;;;10.67;56.22;99203.38;5007948;28;20048;-73
2023/10/26 08:07:40;;;;;;;9.15;5.85;;;;;;;10.69;56.18;99214.16;5024015;23;20053;-76
2023/10/26 08:10:10;;;;;;;9.00;5.85;;;;;;;10.70;56.30;99210.41;5024632;28;20512;-76
2023/10/26 08:12:39;;;;;;;8.00;5.70;;;;;;;10.71;56.48;99220.31;5026192;28;20452;-77
2023/10/26 08:15:08;;;;;;;7.75;5.38;;;;;;;10.71;56.67;99217.59;5007766;28;20048;-76
2023/10/26 08:17:56;;;;;;;7.97;5.38;;;;;;;10.70;56.15;99211.25;5019310;28;20045;-76
2023/10/26 08:20:24;;;;;;;8.30;5.55;;;;;;;10.72;56.66;99216.56;5014564;28;20062;-75
2023/10/26 08:22:52;;;;;;;9.85;5.90;;;;;;;10.73;56.11;99212.78;5017140;28;20056;-76
2023/10/26 08:25:20;;;;;;;8.77;5.85;;;;;;;10.73;56.04;99224.56;5013817;28;20045;-75
2023/10/26 08:27:54;;;;;;;9.63;6.27;;;;;;;10.74;56.39;99225.41;5017601;28;20517;-75
2023/10/26 08:30:22;;;;;;;9.07;6.05;;;;;;;10.75;56.50;99225.25;5014359;28;20512;-76
2023/10/26 08:32:53;;;;;;;10.82;6.45;;;;;;;10.75;55.98;99225.25;5015507;28;20424;-76
2023/10/26 08:35:22;;;;;;;8.95;6.18;;;;;;;10.76;56.37;99221.50;5014416;28;20053;-75
2023/10/26 08:37:51;;;;;;;8.70;5.45;;;;;;;10.76;56.10;99224.22;5016709;28;20049;-76
2023/10/26 08:40:19;;;;;;;9.13;5.80;;;;;;;10.77;56.58;99225.94;5012061;28;20092;-76
2023/10/26 08:42:48;;;;;;;7.93;5.53;;;;;;;10.79;56.61;99231.25;5015678;28;20578;-75
2023/10/26 08:45:23;;;;;;;9.73;6.25;;;;;;;10.82;55.93;99228.13;5013798;28;20072;-75
2023/10/26 08:47:52;;;;;;;8.20;5.72;;;;;;;10.81;56.40;99243.69;5014816;28;20054;-76
2023/10/26 08:50:22;;;;;;;9.82;6.13;;;;;;;10.82;56.05;99247.28;5013163;28;20059;-75
2023/10/26 08:52:51;;;;;;;9.65;6.38;;;;;;;10.83;56.35;99251.75;5015109;28;20046;-76
2023/10/26 08:55:20;;;;;;;9.82;6.32;;;;;;;10.82;56.27;99236.34;5014621;28;20056;-75
2023/10/26 08:57:51;;;;;;;10.00;6.43;;;;;;;10.83;56.39;99236.19;5015986;28;20061;-76
2023/10/26 09:00:20;;;;;;;10.35;6.63;;;;;;;10.82;55.92;99245.41;5013490;28;20068;-76
2023/10/26 09:02:50;;;;;;;9.73;6.38;;;;;;;10.87;55.73;99250.38;5014963;28;20117;-76
2023/10/26 09:05:19;;;;;;;9.00;6.32;;;;;;;10.86;55.71;99257.72;5015927;28;20057;-75
2023/10/26 09:07:47;;;;;;;9.05;5.95;;;;;;;10.88;55.74;99252.09;5015711;28;20163;-76
2023/10/26 09:10:29;;;;;;;9.82;6.40;;;;;;;10.92;55.85;99253.44;5013110;28;20045;-75
2023/10/26 09:13:03;;;;;;;10.33;5.60;;;;;;;10.91;55.77;99258.03;5016828;28;20578;-76
2023/10/26 09:15:31;;;;;;;9.27;5.90;;;;;;;10.92;56.12;99242.47;5013447;28;20395;-76
2023/10/26 09:18:09;;;;;;;8.88;5.57;;;;;;;10.96;56.21;99236.50;5015096;28;20140;-76
2023/10/26 09:21:04;;;;;;;9.15;5.75;;;;;;;10.98;56.34;99244.50;5014690;28;20056;-76
2023/10/26 09:23:33;;;;;;;9.15;5.93;;;;;;;11.02;56.63;99245.88;5014512;28;20143;-75
2023/10/26 09:26:04;;;;;;;8.18;5.75;;;;;;;11.07;56.38;99253.53;5013925;28;20099;-75
2023/10/26 09:28:51;;;;;;;8.63;5.68;;;;;;;11.12;55.90;99241.06;5015241;28;20080;-76
2023/10/26 09:31:19;;;;;;;10.02;6.15;;;;;;;11.13;56.81;99244.66;5016022;28;20568;-76
2023/10/26 09:33:49;;;;;;;10.63;6.10;;;;;;;11.20;56.38;99243.75;5016770;28;20049;-75
2023/10/26 09:36:19;;;;;;;9.90;6.15;;;;;;;11.24;56.90;99242.34;5013924;28;20057;-76
2023/10/26 09:38:48;;;;;;;11.02;6.30;;;;;;;11.27;56.31;99244.75;5013860;28;20137;-75
2023/10/26 09:41:20;;;;;;;7.93;5.35;;;;;;;11.33;56.30;99248.66;5012931;28;20288;-75
2023/10/26 09:43:48;;;;;;;9.70;6.03;;;;;;;11.35;56.46;99247.44;5013705;28;20045;-76
2023/10/26 09:46:17;;;;;;;8.32;5.45;;;;;;;11.39;56.04;99247.94;5014057;28;20053;-75
2023/10/26 09:48:47;;;;;;;9.43;6.10;;;;;;;11.43;56.23;99248.44;5014156;28;20056;-76
2023/10/26 09:51:16;;;;;;;9.18;5.53;;;;;;;11.46;55.71;99251.69;5013239;28;20057;-76
2023/10/26 09:53:45;;;;;;;8.77;5.60;;;;;;;11.48;55.85;99252.34;5016024;28;20416;-77
2023/10/26 09:56:25;;;;;;;9.20;5.53;;;;;;;11.49;55.65;99243.09;5012788;28;20127;-76
2023/10/26 09:58:54;;;;;;;8.93;5.78;;;;;;;11.52;56.02;99247.38;5015192;28;20052;-76
2023/10/26 10:01:33;;;;;;;9.05;5.65;;;;;;;11.56;54.64;99243.22;5013714;28;20081;-76
2023/10/26 10:04:04;;;;;;;8.60;5.03;;;;;;;11.55;55.26;99238.78;5014826;28;20057;-76
2023/10/26 10:06:50;;;;;;;9.52;5.80;;;;;;;11.56;54.81;99252.28;5014445;28;20057;-75
2023/10/26 10:09:21;;;;;;;8.80;5.72;;;;;;;11.57;55.56;99253.16;5012275;28;20052;-75
2023/10/26 10:12:28;;;;;;;9.80;5.85;;;;;;;11.57;54.86;99245.78;5013564;28;20239;-75
2023/10/26 10:15:00;;;;;;;10.13;6.97;;;;;;;11.58;55.59;99243.91;5005521;28;20531;-76
2023/10/26 10:18:15;;;;;;;9.32;6.10;;;;;;;11.59;55.38;99248.34;5013853;28;20049;-74
2023/10/26 10:20:46;;;;;;;11.48;6.25;;;;;;;11.62;56.00;99240.66;5013598;28;20152;-75
2023/10/26 10:23:30;;;;;;;9.82;6.72;;;;;;;11.65;54.92;99234.81;5014466;28;20559;-75
2023/10/26 10:26:00;;;;;;;10.13;6.60;;;;;;;11.67;55.79;99229.16;5011527;28;20060;-75
2023/10/26 10:28:55;;;;;;;10.48;6.60;;;;;;;11.70;55.40;99221.44;5013319;28;20057;-75
2023/10/26 10:31:39;;;;;;;11.23;6.85;;;;;;;11.73;56.08;99228.41;5012451;28;20543;-75
2023/10/26 10:34:10;;;;;;;9.45;5.88;;;;;;;11.77;55.83;99216.06;5015474;28;21578;-75
2023/10/26 10:37:14;;;;;;;8.68;5.85;;;;;;;11.79;55.09;99219.50;5015383;28;20578;-74
2023/10/26 10:40:11;;;;;;;7.72;5.25;;;;;;;11.83;54.49;99218.06;5010186;28;20077;-75
2023/10/26 10:42:40;;;;;;;8.32;5.45;;;;;;;11.85;55.60;99223.38;5014200;28;20471;-76
2023/10/26 10:45:12;;;;;;;8.13;4.55;;;;;;;11.91;54.84;99225.38;5011775;28;20053;-74
2023/10/26 10:47:41;;;;;;;7.55;4.60;;;;;;;11.93;54.77;99234.28;5011532;28;20060;-75
2023/10/26 10:50:19;;;;;;;4.82;3.00;;;;;;;11.98;53.24;99238.16;5012669;28;20057;-75
2023/10/26 10:52:49;;;;;;;4.97;3.03;;;;;;;11.98;54.54;99226.34;5015375;28;20492;-75
2023/10/26 10:55:21;;;;;;;4.80;2.85;;;;;;;12.01;53.65;99215.88;5011274;28;20184;-76
2023/10/26 10:57:56;;;;;;;6.10;3.63;;;;;;;12.01;54.04;99206.81;5014697;28;20420;-75
2023/10/26 11:00:25;;;;;;;6.75;4.20;;;;;;;12.03;54.75;99208.34;5011971;28;20053;-76
2023/10/26 11:02:57;;;;;;;7.45;4.97;;;;;;;12.07;54.21;99201.44;5014170;28;20168;-75
2023/10/26 11:05:37;;;;;;;7.50;5.30;;;;;;;12.10;52.67;99192.84;5013092;28;20509;-75
2023/10/26 11:08:07;;;;;;;6.35;4.15;;;;;;;12.15;53.94;99186.78;5012573;28;20054;-75
2023/10/26 11:10:36;;;;;;;6.30;4.38;;;;;;;12.16;54.12;99179.41;5012204;28;20099;-75
2023/10/26 11:13:04;;;;;;;6.47;3.88;;;;;;;12.19;53.74;99181.81;5015046;28;20163;-75
2023/10/26 11:15:34;;;;;;;5.97;3.58;;;;;;;12.22;53.28;99173.19;5010611;28;20108;-74
2023/10/26 11:18:03;;;;;;;5.40;3.65;;;;;;;12.23;52.88;99183.13;5014189;28;20119;-74
2023/10/26 11:20:39;;;;;;;6.45;3.85;;;;;;;12.27;51.96;99184.47;5013711;28;20258;-74
2023/10/26 11:23:10;;;;;;;6.65;4.10;;;;;;;12.26;52.87;99175.38;5014673;28;20060;-74
2023/10/26 11:25:39;;;;;;;7.22;4.20;;;;;;;12.26;53.18;99172.66;5010353;28;20390;-75
2023/10/26 11:28:08;;;;;;;8.88;4.88;;;;;;;12.28;53.06;99162.34;5012147;28;20061;-75
2023/10/26 11:30:47;;;;;;;7.40;4.82;;;;;;;12.30;51.77;99167.63;5011217;28;20406;-75
2023/10/26 11:33:34;;;;;;;7.53;5.38;;;;;;;12.28;51.70;99166.97;5014162;28;20053;-75
2023/10/26 11:36:09;;;;;;;8.07;5.03;;;;;;;12.27;52.24;99162.53;5015142;28;20103;-75
2023/10/26 11:38:46;;;;;;;9.32;5.93;;;;;;;12.29;51.29;99149.47;5015054;28;20084;-75
2023/10/26 11:41:20;;;;;;;8.02;5.35;;;;;;;12.28;51.68;99154.13;5015217;28;20055;-75
2023/10/26 11:43:49;;;;;;;7.65;4.78;;;;;;;12.25;52.79;99146.25;5016151;28;20053;-75
2023/10/26 11:46:17;;;;;;;6.63;4.53;;;;;;;12.27;52.78;99148.81;5013901;28;20069;-75